Terminal Aerodrome Forecast
Issued by NWS Sioux Falls, SD

Home | Current Version | Previous Version | Text Only | Print | Product List | Glossary On
Versions: 1 2 3 4 5 6 7 8 9 10 11 12 13 14 15 16 17 18 19 20
000
FTUS43 KFSD 301120
TAFFSD
TAF
KFSD 301120Z 3012/3112 18009KT 4SM BR OVC003
      TEMPO 3012/3013 2SM BR
     FM301500 18010KT P6SM SKC
     FM302000 18013G19KT P6SM SKC
     FM310100 18011KT P6SM SKC=

USA.gov is the U.S. government's official web portal to all federal, state and local government web resources and services.